Time;durP1;ratioP1;P1;durP2;ratioP2;P2;SDS_P1;SDS_P2;PMS_P1;PMS_P2;Temp;Humidity;BMP_temperature;BMP_pressure;BME280_temperature;BME280_humidity;BME280_pressure;Samples;Min_cycle;Max_cycle;Signal;HPM_P1;HPM_P2
2022/09/22 00:01:30;;;;;;;7.00;2.22;;;;;;;9.57;81.10;97040.56;5042460;28;20137;-76
2022/09/22 00:04:00;;;;;;;2.78;1.40;;;;;;;8.57;81.17;96875.00;5044214;28;20138;-75
2022/09/22 00:06:32;;;;;;;1.88;1.25;;;;;;;8.16;80.32;96792.84;5044354;28;20064;-75
2022/09/22 00:09:00;;;;;;;1.30;1.20;;;;;;;8.98;81.73;96941.38;5042508;28;20221;-74
2022/09/22 00:11:35;;;;;;;1.20;1.10;;;;;;;9.52;82.53;97043.59;5044355;28;20063;-75
2022/09/22 00:14:07;;;;;;;1.02;1.02;;;;;;;9.40;82.23;97035.47;5043783;28;20053;-75
2022/09/22 00:16:46;;;;;;;1.23;1.13;;;;;;;9.51;82.76;97030.16;5044240;28;20146;-75
2022/09/22 00:19:16;;;;;;;2.33;1.35;;;;;;;9.39;82.97;97044.91;5042784;28;20363;-76
2022/09/22 00:21:43;;;;;;;2.22;1.27;;;;;;;9.45;82.00;97035.19;5044088;28;20372;-76
2022/09/22 00:24:10;;;;;;;1.23;1.13;;;;;;;9.45;82.43;97037.94;5042528;28;20053;-76
2022/09/22 00:26:37;;;;;;;1.67;1.38;;;;;;;9.40;83.79;97029.94;5043888;28;20519;-75
2022/09/22 00:29:08;;;;;;;1.38;1.27;;;;;;;9.51;83.70;97030.97;5043869;28;20136;-76
2022/09/22 00:31:37;;;;;;;2.88;1.40;;;;;;;8.67;84.02;96902.03;5044213;28;20049;-76
2022/09/22 00:34:04;;;;;;;9.77;3.50;;;;;;;9.64;84.19;97024.09;5044074;28;20076;-76
2022/09/22 00:36:31;;;;;;;3.08;1.80;;;;;;;9.64;84.32;97024.09;5046120;28;20110;-76
2022/09/22 00:38:58;;;;;;;3.38;1.52;;;;;;;9.72;83.88;97025.06;5048137;28;20057;-76
2022/09/22 00:41:29;;;;;;;3.80;1.98;;;;;;;9.75;83.43;97029.84;5047679;28;20495;-75
2022/09/22 00:44:14;;;;;;;4.53;1.80;;;;;;;9.76;83.65;97032.25;5047707;28;20072;-77
2022/09/22 00:46:44;;;;;;;2.50;1.50;;;;;;;9.53;83.48;96987.13;5047065;28;20120;-76
2022/09/22 00:49:12;;;;;;;2.50;1.60;;;;;;;9.84;83.28;97028.47;5048684;28;20512;-75
2022/09/22 00:51:42;;;;;;;2.13;1.73;;;;;;;9.68;82.88;97019.44;5047271;28;20136;-77
2022/09/22 00:54:13;;;;;;;4.82;2.35;;;;;;;9.52;84.69;97021.50;5049161;28;20146;-75
2022/09/22 00:57:05;;;;;;;2.05;1.52;;;;;;;9.44;84.28;96992.09;5047978;28;20482;-75
2022/09/22 00:59:32;;;;;;;2.50;1.40;;;;;;;9.52;86.19;97027.03;5046925;28;20130;-76
2022/09/22 01:01:59;;;;;;;1.70;1.60;;;;;;;9.29;85.17;96957.03;5045698;28;20136;-75
2022/09/22 01:04:27;;;;;;;1.67;1.40;;;;;;;9.27;83.39;96953.84;5045662;28;20080;-75
2022/09/22 01:06:57;;;;;;;3.90;2.28;;;;;;;9.60;84.85;96994.78;5047169;28;20081;-76
2022/09/22 01:09:24;;;;;;;1.73;1.30;;;;;;;9.89;84.88;97025.41;5045251;28;20170;-75
2022/09/22 01:11:51;;;;;;;3.35;1.75;;;;;;;9.69;84.42;97021.03;5047190;28;20127;-75
2022/09/22 01:14:40;;;;;;;2.35;1.50;;;;;;;9.59;85.12;97027.19;5045696;28;20072;-75
2022/09/22 01:17:21;;;;;;;1.63;1.10;;;;;;;9.55;84.68;97029.06;5046947;28;20057;-76
2022/09/22 01:19:54;;;;;;;1.25;1.15;;;;;;;9.54;84.28;97018.34;5046737;28;20534;-75
2022/09/22 01:22:54;;;;;;;1.33;1.20;;;;;;;9.53;85.07;97014.78;5047033;28;20057;-76
2022/09/22 01:25:42;;;;;;;2.13;1.40;;;;;;;9.65;83.25;97009.13;5045327;28;20053;-75
2022/09/22 01:28:18;;;;;;;1.02;1.02;;;;;;;9.55;81.22;97018.00;5047293;28;20077;-77
2022/09/22 01:30:56;;;;;;;1.52;1.20;;;;;;;9.47;82.34;97035.59;5045039;28;20107;-74
2022/09/22 01:33:32;;;;;;;1.88;1.30;;;;;;;9.49;82.79;97021.41;5047022;28;20079;-76
2022/09/22 01:36:23;;;;;;;2.00;1.63;;;;;;;9.49;83.53;97004.81;5046359;28;20057;-76
2022/09/22 01:39:09;;;;;;;1.27;1.13;;;;;;;9.13;83.12;96981.19;5046325;28;20064;-76
2022/09/22 01:41:36;;;;;;;1.48;1.27;;;;;;;9.47;83.15;97013.47;5046533;28;20138;-75
2022/09/22 01:44:24;;;;;;;2.17;1.35;;;;;;;9.52;82.26;97010.44;5046505;28;20716;-76
2022/09/22 01:47:09;;;;;;;1.20;1.10;;;;;;;9.16;82.55;96953.63;5044673;28;20500;-75
2022/09/22 01:49:41;;;;;;;1.40;1.30;;;;;;;7.46;82.48;96698.31;5046211;28;20065;-75
2022/09/22 01:52:35;;;;;;;1.38;1.27;;;;;;;9.48;82.67;97014.28;5045104;28;20045;-77
2022/09/22 01:55:15;;;;;;;11.00;4.47;;;;;;;8.67;86.26;97018.00;5045733;28;20135;-75
2022/09/22 01:57:59;;;;;;;3.05;1.80;;;;;;;8.09;91.69;97024.41;5046526;28;20587;-76
2022/09/22 02:00:27;;;;;;;3.72;1.95;;;;;;;7.75;94.87;96992.78;5045920;28;20080;-76
2022/09/22 02:03:06;;;;;;;2.25;1.42;;;;;;;8.21;92.98;97027.88;5046093;28;20056;-76
2022/09/22 02:05:46;;;;;;;1.40;1.30;;;;;;;8.22;91.89;96995.59;5045614;28;20598;-76
2022/09/22 02:08:20;;;;;;;2.75;1.30;;;;;;;8.37;91.51;97019.63;5044840;28;20053;-76
2022/09/22 02:10:48;;;;;;;1.80;1.40;;;;;;;8.06;91.60;97014.09;5044077;28;20081;-76
2022/09/22 02:13:15;;;;;;;1.48;1.10;;;;;;;5.73;90.94;96593.16;5044991;28;20239;-75
2022/09/22 02:16:00;;;;;;;2.17;1.38;;;;;;;8.60;91.53;97012.34;5045639;28;20064;-75
2022/09/22 02:18:36;;;;;;;1.88;1.20;;;;;;;8.67;91.39;97012.47;5044649;28;20091;-75
2022/09/22 02:21:03;;;;;;;2.47;1.50;;;;;;;8.71;89.06;97018.91;5045178;28;20585;-75
2022/09/22 02:23:31;;;;;;;1.33;1.23;;;;;;;7.70;89.01;96861.50;5045901;28;20488;-76
2022/09/22 02:26:00;;;;;;;1.65;1.20;;;;;;;7.92;89.22;96903.41;5045300;28;20048;-76
2022/09/22 02:28:30;;;;;;;1.40;1.30;;;;;;;8.84;88.41;97012.91;5046070;28;20057;-71
2022/09/22 02:31:00;;;;;;;2.90;1.40;;;;;;;8.86;87.10;97009.78;5045177;28;20136;-72
2022/09/22 02:33:45;;;;;;;1.60;1.20;;;;;;;8.79;86.55;97009.59;5044568;28;20146;-71
2022/09/22 02:36:18;;;;;;;1.48;1.20;;;;;;;8.76;87.63;97004.81;5044530;28;20148;-72
2022/09/22 02:39:09;;;;;;;1.57;1.10;;;;;;;8.71;85.76;97014.16;5045737;28;20049;-73
2022/09/22 02:42:11;;;;;;;2.05;1.25;;;;;;;8.02;86.63;96922.16;5045113;28;20390;-72
2022/09/22 02:44:49;;;;;;;1.45;1.23;;;;;;;8.53;87.45;97018.47;5044906;28;20503;-73
2022/09/22 02:47:21;;;;;;;1.63;1.20;;;;;;;8.41;87.72;97009.50;5045005;28;20134;-72
2022/09/22 02:49:50;;;;;;;6.60;1.80;;;;;;;7.22;92.75;96914.16;5043559;28;20136;-72
2022/09/22 02:52:18;;;;;;;1.30;1.20;;;;;;;7.02;91.13;96842.75;5043654;28;20080;-72
2022/09/22 02:54:45;;;;;;;1.25;1.10;;;;;;;8.21;89.38;97008.56;5045120;28;20164;-73
2022/09/22 02:57:12;;;;;;;1.35;1.10;;;;;;;8.18;89.31;97008.47;5044831;28;20103;-72
2022/09/22 02:59:38;;;;;;;2.95;1.48;;;;;;;7.98;90.59;96973.69;5045012;28;20577;-73
2022/09/22 03:02:05;;;;;;;3.30;1.38;;;;;;;6.34;90.31;96744.97;5044333;28;20072;-72
2022/09/22 03:04:31;;;;;;;2.40;1.10;;;;;;;7.85;89.26;96975.72;5044923;28;20139;-72
2022/09/22 03:06:58;;;;;;;1.23;1.13;;;;;;;6.89;91.59;96844.78;5044511;28;20142;-73
2022/09/22 03:09:25;;;;;;;2.95;1.50;;;;;;;7.53;91.46;96930.78;5042874;28;20148;-71
2022/09/22 03:11:51;;;;;;;4.10;1.15;;;;;;;7.93;92.07;97004.28;5044800;28;20127;-71
2022/09/22 03:14:18;;;;;;;1.35;1.10;;;;;;;7.94;90.70;97016.91;5045073;28;20092;-72
2022/09/22 03:16:44;;;;;;;1.30;1.20;;;;;;;7.97;92.22;97010.66;5043213;28;20096;-72
2022/09/22 03:19:11;;;;;;;1.73;1.50;;;;;;;6.06;90.83;96780.66;5045042;28;20592;-72
2022/09/22 03:21:38;;;;;;;1.83;1.35;;;;;;;7.85;91.21;97016.28;5043091;28;20080;-72
2022/09/22 03:24:05;;;;;;;2.85;1.38;;;;;;;6.87;93.22;96885.66;5044543;28;20045;-72
2022/09/22 03:26:32;;;;;;;3.00;1.35;;;;;;;6.59;98.39;96978.38;5044337;28;20463;-71
2022/09/22 03:28:59;;;;;;;3.20;1.67;;;;;;;6.97;100.00;97022.81;5043053;28;20106;-72
2022/09/22 03:31:25;;;;;;;3.10;1.88;;;;;;;6.99;100.00;96992.97;5044312;28;20083;-71
2022/09/22 03:33:52;;;;;;;2.83;1.40;;;;;;;7.28;100.00;97020.22;5044389;28;20052;-72
2022/09/22 03:36:18;;;;;;;2.83;1.40;;;;;;;7.12;100.00;97024.84;5044012;28;20271;-71
2022/09/22 03:38:45;;;;;;;1.65;1.27;;;;;;;7.10;100.00;97005.09;5044492;28;20085;-71
2022/09/22 03:41:12;;;;;;;3.42;1.73;;;;;;;7.25;100.00;97023.66;5042432;28;20435;-71
2022/09/22 03:43:38;;;;;;;3.92;1.70;;;;;;;7.07;98.12;97000.31;5044556;28;20107;-71
2022/09/22 03:46:05;;;;;;;4.05;2.13;;;;;;;7.36;97.08;97035.00;5043789;28;20084;-70
2022/09/22 03:48:32;;;;;;;2.17;1.58;;;;;;;7.29;98.81;97026.50;5044387;28;20053;-71
2022/09/22 03:50:59;;;;;;;3.58;2.08;;;;;;;7.04;97.63;96969.91;5042676;28;20136;-71
2022/09/22 03:53:26;;;;;;;1.30;1.20;;;;;;;6.82;100.00;97044.75;5044624;28;20052;-70
2022/09/22 03:56:07;;;;;;;2.22;1.70;;;;;;;6.89;100.00;97048.50;5044115;28;20106;-68
2022/09/22 03:58:33;;;;;;;2.40;1.60;;;;;;;7.00;100.00;97049.66;5044600;28;20080;-70
2022/09/22 04:01:01;;;;;;;2.42;1.65;;;;;;;7.04;99.16;97050.56;5044365;28;20114;-71
2022/09/22 04:03:28;;;;;;;2.92;1.60;;;;;;;7.06;99.45;97040.00;5044611;28;20060;-70
2022/09/22 04:05:54;;;;;;;3.83;1.45;;;;;;;7.05;98.53;97049.41;5044248;28;20519;-70
2022/09/22 04:08:21;;;;;;;3.33;1.90;;;;;;;6.84;100.00;97004.72;5043009;28;20399;-70
2022/09/22 04:10:48;;;;;;;2.00;1.50;;;;;;;7.18;99.57;97056.50;5044736;28;20089;-71
2022/09/22 04:13:15;;;;;;;2.70;1.95;;;;;;;7.30;95.98;97059.22;5046546;28;20102;-71
2022/09/22 04:15:41;;;;;;;2.00;1.25;;;;;;;7.01;95.52;96996.19;5046242;28;20119;-71
2022/09/22 04:18:09;;;;;;;3.22;1.38;;;;;;;6.35;95.51;96890.38;5048166;28;20476;-71
2022/09/22 04:20:37;;;;;;;2.88;1.85;;;;;;;6.69;93.90;96911.84;5047731;28;20534;-69
2022/09/22 04:23:06;;;;;;;4.07;3.10;;;;;;;4.94;91.42;96642.56;5046697;28;20049;-69
2022/09/22 04:25:33;;;;;;;3.25;2.30;;;;;;;7.52;91.71;97061.44;5047501;28;20537;-70
2022/09/22 04:27:59;;;;;;;2.30;1.70;;;;;;;7.54;92.80;97048.13;5048093;28;20418;-69
2022/09/22 04:30:32;;;;;;;3.10;1.98;;;;;;;6.34;91.69;96872.25;5047790;28;20059;-71
2022/09/22 04:32:59;;;;;;;3.95;1.90;;;;;;;7.53;92.60;97052.03;5046128;28;20515;-69
2022/09/22 04:35:27;;;;;;;2.25;1.65;;;;;;;7.64;91.92;97058.66;5047758;28;20099;-69
2022/09/22 04:37:54;;;;;;;2.78;2.03;;;;;;;7.63;92.57;97062.53;5046187;28;20102;-69
2022/09/22 04:40:22;;;;;;;5.28;1.67;;;;;;;7.49;92.15;97045.59;5046991;28;20579;-70
2022/09/22 04:42:50;;;;;;;2.88;1.67;;;;;;;7.33;90.26;96992.38;5046083;28;20137;-70
2022/09/22 04:45:17;;;;;;;19.42;6.18;;;;;;;7.69;89.64;97043.81;5046100;28;20254;-70
2022/09/22 04:47:45;;;;;;;9.35;4.20;;;;;;;7.68;90.16;97048.50;5047476;28;20126;-71
2022/09/22 04:50:13;;;;;;;8.02;3.60;;;;;;;7.78;90.06;97040.91;5047071;28;20052;-72
2022/09/22 04:52:44;;;;;;;5.43;2.28;;;;;;;7.87;88.55;97045.13;5047090;28;20570;-69
2022/09/22 04:55:11;;;;;;;5.40;2.45;;;;;;;7.96;87.90;97043.00;5045657;28;20102;-71
2022/09/22 04:57:37;;;;;;;4.57;2.95;;;;;;;8.06;88.17;97047.19;5048129;28;20103;-66
2022/09/22 05:00:05;;;;;;;3.25;2.03;;;;;;;7.84;88.12;97000.88;5044471;28;20049;-74
2022/09/22 05:02:33;;;;;;;2.15;1.58;;;;;;;8.31;87.93;97055.00;5044959;28;20053;-63
2022/09/22 05:05:01;;;;;;;2.78;1.90;;;;;;;8.59;86.84;97101.81;5046980;28;20118;-69
2022/09/22 05:07:28;;;;;;;3.45;2.00;;;;;;;7.75;85.80;96871.47;5047192;28;20144;-65
2022/09/22 05:09:54;;;;;;;5.50;2.17;;;;;;;8.55;82.86;96982.22;5045588;28;20063;-69
2022/09/22 05:12:21;;;;;;;10.63;2.30;;;;;;;8.74;83.70;97029.22;5045526;28;20395;-69
2022/09/22 05:14:47;;;;;;;4.10;2.30;;;;;;;7.78;83.25;96853.44;5045531;28;20569;-69
2022/09/22 05:17:14;;;;;;;2.28;1.70;;;;;;;9.24;82.27;97081.69;5045531;28;20057;-69
2022/09/22 05:19:41;;;;;;;2.83;1.80;;;;;;;9.09;82.85;97025.31;5046894;28;20049;-69
2022/09/22 05:22:07;;;;;;;7.35;2.35;;;;;;;9.68;81.70;97055.41;5044417;28;20160;-70
2022/09/22 05:24:34;;;;;;;3.75;2.67;;;;;;;9.61;79.82;96983.34;5045823;28;20519;-69
2022/09/22 05:27:01;;;;;;;2.10;1.83;;;;;;;9.64;77.78;96930.06;5046179;28;20503;-69
2022/09/22 05:29:27;;;;;;;3.08;2.17;;;;;;;9.91;75.96;96923.44;5046586;28;20144;-70
2022/09/22 05:31:54;;;;;;;5.13;1.90;;;;;;;11.07;74.91;97057.53;5046018;28;20080;-69
2022/09/22 05:34:21;;;;;;;3.08;2.15;;;;;;;11.58;73.89;97056.69;5046116;28;20045;-70
2022/09/22 05:36:47;;;;;;;5.43;2.45;;;;;;;11.65;72.66;97039.38;5044821;28;20143;-70
2022/09/22 05:39:14;;;;;;;4.90;1.90;;;;;;;11.55;72.31;96990.06;5044492;28;20136;-70
2022/09/22 05:41:40;;;;;;;3.22;2.30;;;;;;;11.21;71.83;96888.59;5045017;28;20084;-69
2022/09/22 05:44:07;;;;;;;2.58;2.20;;;;;;;12.30;68.87;97054.38;5046333;28;20137;-70
2022/09/22 05:46:33;;;;;;;2.45;2.30;;;;;;;12.59;66.74;97059.06;5046043;28;20122;-69
2022/09/22 05:49:00;;;;;;;2.40;1.85;;;;;;;12.58;67.79;97026.91;5048355;28;20080;-69
2022/09/22 05:51:27;;;;;;;3.00;2.28;;;;;;;12.85;66.29;97056.09;5061235;28;20049;-69
2022/09/22 05:53:53;;;;;;;2.35;2.15;;;;;;;12.98;65.97;97057.41;5051185;28;20090;-67
2022/09/22 05:56:20;;;;;;;3.38;2.50;;;;;;;13.03;65.14;97059.84;5050049;28;20562;-65
2022/09/22 05:58:47;;;;;;;2.60;2.40;;;;;;;13.04;64.89;97050.31;5060679;28;20869;-68
2022/09/22 06:01:13;;;;;;;4.70;2.58;;;;;;;13.07;65.97;97060.66;5052949;28;20160;-70
2022/09/22 06:03:40;;;;;;;3.28;2.20;;;;;;;10.72;64.38;96658.06;5045646;28;20084;-71
2022/09/22 06:06:07;;;;;;;7.78;3.60;;;;;;;12.86;64.23;97032.69;5045396;28;20566;-70
2022/09/22 06:08:33;;;;;;;4.38;2.95;;;;;;;12.96;64.91;97029.16;5047238;28;20111;-68
2022/09/22 06:11:00;;;;;;;4.15;2.53;;;;;;;13.22;65.44;97092.97;5052760;28;20113;-67
2022/09/22 06:13:26;;;;;;;2.58;2.38;;;;;;;13.37;64.96;97055.72;5065996;28;20985;-66
2022/09/22 06:15:53;;;;;;;3.30;2.55;;;;;;;13.30;64.52;97016.72;5065155;28;20145;-67
2022/09/22 06:18:20;;;;;;;2.15;1.98;;;;;;;13.41;63.44;97016.78;5064758;28;20274;-67
2022/09/22 06:20:50;;;;;;;2.72;2.20;;;;;;;13.38;63.74;96982.19;5065203;28;20053;-68
2022/09/22 06:23:17;;;;;;;2.30;2.05;;;;;;;14.17;63.59;97050.91;5055764;28;20057;-71
2022/09/22 06:25:43;;;;;;;3.15;2.20;;;;;;;13.43;60.90;96945.66;5043850;28;20044;-65
2022/09/22 06:28:13;;;;;;;2.85;2.22;;;;;;;13.76;62.73;96977.97;5043202;28;20122;-64
2022/09/22 06:30:40;;;;;;;4.88;2.35;;;;;;;13.44;61.02;96988.97;5043604;28;20104;-69
2022/09/22 06:33:09;;;;;;;6.13;2.92;;;;;;;13.41;61.51;96981.41;5050161;28;20136;-70
2022/09/22 06:35:36;;;;;;;3.10;2.30;;;;;;;13.82;61.65;97050.78;5044262;28;20088;-70
2022/09/22 06:38:08;;;;;;;2.45;2.25;;;;;;;13.69;62.18;97031.66;5040795;28;20075;-68
2022/09/22 06:40:37;;;;;;;3.60;2.33;;;;;;;13.97;61.80;97019.03;5024759;28;20172;-69
2022/09/22 06:43:11;;;;;;;3.05;2.67;;;;;;;14.58;61.27;97050.25;5045083;28;20052;-65
2022/09/22 06:45:39;;;;;;;2.67;2.22;;;;;;;14.85;59.91;97050.66;5060947;28;20084;-63
2022/09/22 06:48:06;;;;;;;2.30;2.20;;;;;;;14.56;58.51;96984.94;5062811;28;20052;-67
2022/09/22 06:50:37;;;;;;;3.17;2.08;;;;;;;15.21;58.50;97034.72;5061106;28;20063;-66
2022/09/22 06:53:08;;;;;;;2.03;1.90;;;;;;;15.32;58.08;97044.66;5040177;28;20053;-65
2022/09/22 06:55:34;;;;;;;2.45;2.25;;;;;;;15.54;56.24;97040.66;5024370;28;20136;-63
2022/09/22 06:58:01;;;;;;;2.13;2.03;;;;;;;13.69;56.47;96774.75;5012540;28;20065;-62
2022/09/22 07:00:31;;;;;;;2.90;2.70;;;;;;;15.68;56.36;97035.03;5057682;28;20156;-65
2022/09/22 07:03:09;;;;;;;2.47;2.25;;;;;;;15.38;55.32;96976.09;5063022;28;20056;-67
2022/09/22 07:05:36;;;;;;;5.05;2.45;;;;;;;15.89;54.48;97034.97;5064499;28;20584;-63
2022/09/22 07:08:07;;;;;;;2.53;2.30;;;;;;;15.86;54.72;97001.44;5061218;28;20549;-65
2022/09/22 07:10:36;;;;;;;2.33;2.22;;;;;;;15.50;53.86;96939.38;5064019;28;20533;-67
2022/09/22 07:13:04;;;;;;;2.50;2.35;;;;;;;16.23;52.44;97022.03;5064798;28;20044;-68
2022/09/22 07:15:34;;;;;;;3.33;3.08;;;;;;;15.55;52.10;96908.25;5062584;28;20080;-64
2022/09/22 07:18:03;;;;;;;3.05;2.55;;;;;;;15.51;51.69;96918.63;5043623;28;20061;-68
2022/09/22 07:20:32;;;;;;;3.35;3.10;;;;;;;15.51;52.15;96906.66;5042521;28;20052;-67
2022/09/22 07:22:59;;;;;;;2.70;2.50;;;;;;;15.92;51.69;96949.53;5043028;28;20052;-66
2022/09/22 07:25:27;;;;;;;3.15;2.42;;;;;;;15.75;52.26;96951.25;5056679;28;20490;-67
2022/09/22 07:28:03;;;;;;;2.30;2.20;;;;;;;16.09;52.19;96976.63;5050003;28;20334;-66
2022/09/22 07:30:30;;;;;;;3.00;2.15;;;;;;;15.56;52.53;96971.25;5042039;28;20063;-69
2022/09/22 07:32:57;;;;;;;2.38;2.28;;;;;;;16.45;51.63;97034.69;5043433;28;20143;-66
2022/09/22 07:35:24;;;;;;;3.15;2.88;;;;;;;16.63;50.14;97033.81;5038205;28;20144;-61
2022/09/22 07:38:03;;;;;;;2.45;2.35;;;;;;;15.81;49.80;96904.91;5036198;28;20546;-63
2022/09/22 07:40:30;;;;;;;2.50;2.30;;;;;;;15.68;50.07;96867.47;5044580;28;20896;-67
2022/09/22 07:42:56;;;;;;;2.78;2.58;;;;;;;16.56;49.02;96979.53;5042346;28;20495;-63
2022/09/22 07:45:23;;;;;;;2.90;2.45;;;;;;;16.34;49.25;96922.13;5054960;28;20139;-68
2022/09/22 07:50:35;;;;;;;6.63;5.20;;;;;;;17.12;48.87;97050.22;5041096;28;20060;-68
2022/09/22 07:53:03;;;;;;;3.95;3.05;;;;;;;16.83;47.94;96992.91;5049601;28;20057;-68
2022/09/22 07:55:29;;;;;;;2.50;2.38;;;;;;;16.79;48.17;97032.09;5043948;28;20081;-65
2022/09/22 07:57:58;;;;;;;2.50;2.30;;;;;;;17.12;47.79;97045.41;5056105;28;20081;-71
2022/09/22 08:00:31;;;;;;;2.50;2.30;;;;;;;17.17;47.67;97047.78;5045041;28;20054;-62
2022/09/22 08:03:00;;;;;;;2.78;2.45;;;;;;;17.27;47.17;97037.69;5042534;28;20677;-73
2022/09/22 08:05:27;;;;;;;2.35;2.25;;;;;;;16.66;46.70;96963.84;5041625;28;20837;-66
2022/09/22 08:07:57;;;;;;;3.03;2.83;;;;;;;16.94;47.30;96988.81;5043945;28;20111;-68
2022/09/22 08:10:25;;;;;;;2.47;2.38;;;;;;;17.50;46.87;97032.28;5043307;28;20057;-70
2022/09/22 08:12:53;;;;;;;3.33;3.13;;;;;;;17.65;46.33;97044.94;5044616;28;20511;-67
2022/09/22 08:15:21;;;;;;;2.65;2.45;;;;;;;17.68;45.40;97016.09;5043021;28;20067;-64
2022/09/22 08:17:56;;;;;;;8.05;6.20;;;;;;;17.48;44.93;97034.72;5042318;28;20130;-64
2022/09/22 08:20:28;;;;;;;3.10;2.90;;;;;;;17.94;43.98;97026.59;5041917;28;20148;-61
2022/09/22 08:23:01;;;;;;;3.50;2.70;;;;;;;17.55;42.99;96934.59;5043011;28;20057;-63
2022/09/22 08:25:29;;;;;;;3.78;2.95;;;;;;;17.65;43.23;96992.50;5046771;28;20048;-62
2022/09/22 08:27:56;;;;;;;2.38;2.28;;;;;;;16.64;44.39;96936.28;5063797;28;20056;-64
2022/09/22 08:30:22;;;;;;;2.97;2.78;;;;;;;16.87;44.58;96926.50;5061812;28;20553;-63
2022/09/22 08:32:49;;;;;;;2.75;2.55;;;;;;;14.70;45.63;96623.28;5051787;28;20427;-62
2022/09/22 08:35:16;;;;;;;3.58;3.28;;;;;;;16.30;46.68;96885.03;5041821;28;20045;-72
2022/09/22 08:37:43;;;;;;;2.75;2.60;;;;;;;17.22;45.67;96993.34;5043759;28;20075;-63
2022/09/22 08:40:22;;;;;;;2.42;2.22;;;;;;;16.44;46.68;96954.84;5055912;28;20105;-62
2022/09/22 08:42:51;;;;;;;3.72;2.50;;;;;;;17.08;46.80;97035.47;5063541;28;20051;-70
2022/09/22 08:45:23;;;;;;;3.28;2.42;;;;;;;17.35;45.74;97030.81;5055595;28;20045;-72
2022/09/22 08:53:55;;;;;;;;;;;;;;;16.71;46.59;97019.34;5020571;28;20482;-67
2022/09/22 08:56:43;;;;;;;2.60;2.50;;;;;;;17.25;46.08;97026.09;5042437;28;19925;-64
2022/09/22 08:59:16;;;;;;;2.13;2.03;;;;;;;17.31;45.66;97028.03;5046932;28;20644;-60
2022/09/22 09:01:44;;;;;;;;;;;;;;;17.03;45.87;97024.69;5051396;28;20139;-70
2022/09/22 09:04:50;;;;;;;2.80;2.60;;;;;;;16.80;47.16;97022.50;5049789;28;19947;-74
2022/09/22 09:07:28;;;;;;;2.90;2.70;;;;;;;16.84;46.48;97025.25;5046322;28;20060;-72
2022/09/22 09:10:07;;;;;;;3.47;2.53;;;;;;;17.50;45.21;97015.47;5041523;28;20508;-63
2022/09/22 09:12:55;;;;;;;2.95;2.40;;;;;;;17.58;45.09;97012.19;5047837;28;20061;-64
2022/09/22 09:15:28;;;;;;;4.45;2.78;;;;;;;17.70;44.67;97024.88;5046279;28;20136;-73
2022/09/22 09:18:00;;;;;;;2.45;2.35;;;;;;;17.24;43.67;96896.53;5046265;28;20060;-62
2022/09/22 09:20:26;;;;;;;2.70;2.60;;;;;;;17.75;42.68;97016.03;5047018;28;20065;-67
2022/09/22 09:22:54;;;;;;;3.05;2.85;;;;;;;17.78;43.76;97012.38;5045280;28;20056;-65
2022/09/22 09:25:42;;;;;;;3.70;3.40;;;;;;;17.86;43.27;96978.22;5046114;28;20128;-69
2022/09/22 09:28:17;;;;;;;2.88;2.67;;;;;;;18.21;42.68;96999.41;5046471;28;20118;-63
2022/09/22 09:30:52;;;;;;;2.65;2.45;;;;;;;17.75;43.01;97038.44;5050166;28;20052;-64
2022/09/22 09:33:32;;;;;;;2.20;2.10;;;;;;;17.65;42.50;96938.47;5062272;28;20047;-69
2022/09/22 09:36:00;;;;;;;3.28;3.08;;;;;;;17.67;43.30;96997.69;5047448;28;20503;-64
2022/09/22 09:38:32;;;;;;;8.55;3.47;;;;;;;18.01;43.43;97004.06;5046085;28;20057;-65
2022/09/22 09:41:20;;;;;;;2.75;2.63;;;;;;;18.43;41.55;97000.72;5025061;28;20102;-64
2022/09/22 09:43:49;;;;;;;2.45;2.35;;;;;;;18.66;41.57;96992.38;5026026;28;20045;-64
2022/09/22 09:46:25;;;;;;;5.38;3.88;;;;;;;18.59;41.63;96997.31;5025921;28;20053;-66
2022/09/22 09:49:13;;;;;;;;;;;;;;;18.28;41.57;96993.72;5026808;28;20138;-66
2022/09/22 09:51:43;;;;;;;4.05;2.95;;;;;;;18.52;40.91;97005.81;5025796;28;19925;-66
2022/09/22 09:54:13;;;;;;;2.80;2.40;;;;;;;18.61;39.86;96995.66;5026263;28;20488;-66
2022/09/22 09:57:08;;;;;;;2.50;2.13;;;;;;;18.24;40.22;97009.78;5024286;28;20057;-66
2022/09/22 10:02:29;;;;;;;2.10;2.00;;;;;;;17.39;40.77;96933.53;5025964;28;20483;-65
2022/09/22 10:05:06;;;;;;;3.45;2.60;;;;;;;18.08;40.67;97023.63;5025842;28;20053;-65
2022/09/22 10:07:45;;;;;;;12.75;6.60;;;;;;;18.08;40.81;96995.59;5026031;28;20061;-65
2022/09/22 10:10:41;;;;;;;3.25;3.05;;;;;;;17.31;40.56;96895.66;5025203;28;20069;-65
2022/09/22 10:13:08;;;;;;;6.47;4.25;;;;;;;18.03;40.86;96993.25;5016315;28;20089;-65
2022/09/22 10:15:37;;;;;;;3.95;3.60;;;;;;;18.22;40.88;96978.56;5023853;28;20467;-67
2022/09/22 10:18:22;;;;;;;2.80;2.60;;;;;;;18.50;39.19;96981.00;5025075;28;20155;-67
2022/09/22 10:21:19;;;;;;;2.55;2.45;;;;;;;18.56;38.61;96982.09;5025153;28;20129;-68
2022/09/22 10:23:50;;;;;;;2.40;2.30;;;;;;;17.74;38.24;96823.88;5025209;28;20052;-66
2022/09/22 10:26:19;;;;;;;3.20;3.00;;;;;;;18.50;38.68;96978.19;5024960;28;20131;-68
2022/09/22 10:29:11;;;;;;;3.05;2.85;;;;;;;18.38;38.74;96947.09;5023432;28;20050;-66
2022/09/22 10:32:01;;;;;;;3.45;2.65;;;;;;;16.97;38.83;96735.31;5024887;28;20061;-66
2022/09/22 10:34:32;;;;;;;3.42;3.13;;;;;;;18.41;39.14;96989.16;5040508;28;20061;-66
2022/09/22 10:37:02;;;;;;;3.20;3.00;;;;;;;18.20;38.99;96992.22;5023499;28;20092;-68
2022/09/22 10:39:36;;;;;;;2.45;2.30;;;;;;;18.19;38.91;96957.00;5023993;28;20492;-66
2022/09/22 10:42:11;;;;;;;7.75;2.95;;;;;;;18.26;39.23;96895.19;5025059;28;20115;-68
2022/09/22 10:44:39;;;;;;;5.07;4.57;;;;;;;17.81;39.18;96751.72;5024838;28;20524;-67
2022/09/22 10:47:13;;;;;;;6.05;3.20;;;;;;;19.67;37.50;96965.72;5025076;28;20092;-66
2022/09/22 10:49:59;;;;;;;2.70;2.60;;;;;;;18.69;37.84;96969.06;5023782;28;20084;-66
2022/09/22 10:52:34;;;;;;;4.15;3.63;;;;;;;19.11;37.54;96968.34;5024558;28;20084;-65
2022/09/22 10:55:28;;;;;;;4.60;3.10;;;;;;;19.18;37.11;96973.03;5024235;28;20045;-66
2022/09/22 10:57:55;;;;;;;2.50;2.40;;;;;;;19.35;36.69;96967.13;5025031;28;20092;-67
2022/09/22 11:00:24;;;;;;;2.47;2.38;;;;;;;19.63;37.00;96977.06;5023450;28;20084;-66
2022/09/22 11:03:16;;;;;;;2.42;2.22;;;;;;;19.41;37.62;96971.03;5031492;28;20075;-66
2022/09/22 11:12:18;;;;;;;3.10;2.90;;;;;;;18.97;38.45;96968.59;5044234;28;20108;-67
2022/09/22 11:15:11;;;;;;;3.60;3.30;;;;;;;18.28;39.08;96970.47;5044531;28;20166;-65
2022/09/22 11:17:51;;;;;;;3.00;2.80;;;;;;;18.44;38.91;96974.28;5044258;28;20072;-65
2022/09/22 11:20:43;;;;;;;3.50;3.20;;;;;;;18.38;38.68;96963.91;5041827;28;20053;-67
2022/09/22 11:24:15;;;;;;;3.83;3.47;;;;;;;18.10;39.87;96967.91;5044331;28;20132;-67
2022/09/22 11:26:52;;;;;;;3.42;3.13;;;;;;;18.28;40.59;96965.66;5020987;28;20289;-66
2022/09/22 11:29:30;;;;;;;3.70;3.45;;;;;;;17.77;41.32;96968.75;5005089;28;20104;-68
2022/09/22 11:32:18;;;;;;;3.78;3.35;;;;;;;18.01;41.44;96974.03;5035491;28;20131;-67
2022/09/22 11:35:22;;;;;;;3.35;3.05;;;;;;;18.32;41.18;96972.00;5042044;28;20072;-67
2022/09/22 11:38:13;;;;;;;7.22;4.20;;;;;;;17.90;41.34;96928.53;5044260;28;20084;-68
2022/09/22 11:41:07;;;;;;;7.03;4.30;;;;;;;17.72;40.78;96935.59;5043842;28;20110;-66
2022/09/22 11:44:08;;;;;;;6.03;3.95;;;;;;;18.27;40.21;96952.88;5044451;28;20583;-66
2022/09/22 11:46:59;;;;;;;12.68;6.25;;;;;;;18.40;39.62;96956.69;5043031;28;20569;-66
2022/09/22 11:50:04;;;;;;;2.70;2.50;;;;;;;18.86;38.69;96951.13;5043012;28;20049;-65
2022/09/22 11:53:01;;;;;;;2.35;2.25;;;;;;;18.82;37.99;96950.41;5044102;28;20160;-68
2022/09/22 11:55:55;;;;;;;2.75;2.65;;;;;;;18.92;37.13;96955.03;5044072;28;20052;-66
2022/09/22 11:58:26;;;;;;;2.65;2.53;;;;;;;19.36;36.16;96957.47;5043416;28;20061;-67
2022/09/22 12:01:14;;;;;;;2.92;2.72;;;;;;;19.58;36.09;96952.25;5042038;28;20456;-66
2022/09/22 12:03:52;;;;;;;3.42;3.20;;;;;;;19.37;36.67;96896.47;5043318;28;20129;-66
2022/09/22 12:06:28;;;;;;;3.70;3.40;;;;;;;18.67;37.59;96906.19;5042594;28;20094;-66
2022/09/22 12:09:02;;;;;;;7.45;5.18;;;;;;;18.84;37.40;96866.56;5042922;28;20052;-65
2022/09/22 12:11:34;;;;;;;2.45;2.35;;;;;;;18.61;38.54;96945.16;5042989;28;20531;-64
2022/09/22 12:14:02;;;;;;;3.95;2.78;;;;;;;18.64;38.02;96927.47;5043147;28;20111;-66
2022/09/22 12:16:53;;;;;;;3.28;2.97;;;;;;;18.68;38.09;96949.84;5042032;28;20432;-66
2022/09/22 12:19:26;;;;;;;14.50;6.47;;;;;;;18.50;38.79;96950.13;5043637;28;20127;-66
2022/09/22 12:22:15;;;;;;;7.35;4.50;;;;;;;17.56;38.71;96870.97;5043770;28;20523;-67